Altona, Indiana
Current Conditions -  °F | °C
As of 8:35 AM on Wednesday 26 Nov 2014 (Local Time) from KGWB Reporting Station
Overcast Overcast  
Wind Chill: 28°   Ceiling: 1500
Heat Index: 28°   Visibility: 10mi
Dew Point: 21°   Wind: 3mph
Humidity: 74%   Direction: 70°ENE
Pressure: 30.17"   Gusts: NA
Location:  41.3275°N, 85.1414°W
Report Text: KGWB 261335Z AUTO 07003KT 10SM OVC015 M02/M06 A3017 RMK AO2
Loading
Personal Weather Stations






























Interactive Weather Map New forecast layout! Learn more

10-Day Weather Forecast

Advertisements
Track Severe Weather on mobile